This is the latest recevied weather packets stored in our database for station/object KC8ZBC. If no packets are shown the sender has not sent any weather packets the latest 10 day(s).
| Time | Temp. | Humidity | Pressure | Rain* | Wind** | Luminosity | Snow |
|---|---|---|---|---|---|---|---|
| 1777908323 | 20.56° C | 48% | 978.9 hPa | 0 mm | - | 749 W/m² | - |
| 1777908020 | 20° C | 51% | 978.9 hPa | 0 mm | - | 749 W/m² | - |
| 1777907715 | 20.56° C | 50% | 979 hPa | 0 mm | - | 676 W/m² | - |
| 1777907410 | 20° C | 51% | 978.8 hPa | 0 mm | - | 744 W/m² | - |
| 1777907108 | 19.44° C | 52% | 979.2 hPa | 0 mm | - | 724 W/m² | - |
| 1777906805 | 18.33° C | 55% | 979.1 hPa | 0 mm | - | 711 W/m² | - |
| 1777906502 | 18.89° C | 54% | 979 hPa | 0 mm | - | 711 W/m² | - |
| 1777906198 | 18.89° C | 55% | 979.2 hPa | 0 mm | - | 699 W/m² | - |
| 1777905895 | 18.33° C | 55% | 979.1 hPa | 0 mm | - | 685 W/m² | - |
| 1777905591 | 18.89° C | 53% | 979.2 hPa | 0 mm | - | 647 W/m² | - |
| 1777905288 | 17.78° C | 57% | 979.2 hPa | 0 mm | - | 676 W/m² | - |
| 1777904985 | 18.33° C | 55% | 979.1 hPa | 0 mm | - | 672 W/m² | - |
| 1777904683 | 17.78° C | 57% | 979.2 hPa | 0 mm | - | 643 W/m² | - |
| 1777904380 | 18.89° C | 56% | 979.3 hPa | 0 mm | - | 640 W/m² | - |
| 1777904077 | 17.78° C | 57% | 979.4 hPa | 0 mm | - | 630 W/m² | - |
| 1777903773 | 17.22° C | 58% | 979.2 hPa | 0 mm | - | 602 W/m² | - |
| 1777903470 | 17.22° C | 58% | 979.1 hPa | 0 mm | - | 603 W/m² | - |
| 1777903166 | 16.67° C | 60% | 979.3 hPa | 0 mm | - | 588 W/m² | - |
| 1777902862 | 16.11° C | 62% | 979.3 hPa | 0 mm | - | 551 W/m² | - |
| 1777902560 | 16.67° C | 61% | 979.4 hPa | 0 mm | - | 526 W/m² | - |
| 1777902256 | 15.56° C | 62% | 979.5 hPa | 0 mm | - | 537 W/m² | - |
| 1777901955 | 15.56° C | 63% | 979.7 hPa | 0 mm | - | 494 W/m² | - |
| 1777901652 | 15° C | 64% | 979.4 hPa | 0 mm | - | 388 W/m² | - |
| 1777901349 | 15° C | 65% | 979.7 hPa | 0 mm | - | 296 W/m² | - |
| 1777901047 | 14.44° C | 66% | 979.7 hPa | 0 mm | - | 311 W/m² | - |
* Rain latest hour (hover to see other rain measurements)
** Current wind speed in m/s (hover to see current wind gust speed)